Time;durP1;ratioP1;P1;durP2;ratioP2;P2;SDS_P1;SDS_P2;PMS_P1;PMS_P2;Temp;Humidity;BMP_temperature;BMP_pressure;BME280_temperature;BME280_humidity;BME280_pressure;Samples;Min_cycle;Max_cycle;Signal;HPM_P1;HPM_P2
2022/09/21 00:01:32;;;;;;;;;;;;;;;7.22;93.67;101457.22;5017808;28;966;-82
2022/09/21 00:03:58;;;;;;;;;;;;;;;7.27;94.03;101459.22;5019058;28;1309;-82
2022/09/21 00:06:24;;;;;;;;;;;;;;;7.25;94.24;101464.91;5016097;28;1196;-82
2022/09/21 00:08:49;;;;;;;;;;;;;;;7.20;93.95;101462.06;5019371;28;1080;-82
2022/09/21 00:11:19;;;;;;;;;;;;;;;7.19;94.00;101453.06;5019134;28;1839;-82
2022/09/21 00:13:45;;;;;;;;;;;;;;;7.21;94.34;101461.00;5019008;28;1932;-82
2022/09/21 00:16:11;;;;;;;;;;;;;;;7.22;94.34;101454.50;5017138;28;1204;-82
2022/09/21 00:18:36;;;;;;;;;;;;;;;7.24;94.60;101457.78;5018916;28;1081;-82
2022/09/21 00:21:05;;;;;;;;;;;;;;;7.11;94.34;101458.84;5019164;28;879;-82
2022/09/21 00:23:30;;;;;;;;;;;;;;;7.17;95.08;101459.81;5018456;28;1271;-82
2022/09/21 00:26:06;;;;;;;;;;;;;;;7.15;95.57;101467.38;5018978;28;1016;-82
2022/09/21 00:28:31;;;;;;;;;;;;;;;7.07;96.28;101465.81;5018704;28;1017;-82
2022/09/21 00:31:00;;;;;;;;;;;;;;;7.05;97.56;101467.13;5018690;28;1100;-82
2022/09/21 00:33:26;;;;;;;;;;;;;;;7.15;98.72;101470.09;5018306;28;1948;-82
2022/09/21 00:35:51;;;;;;;;;;;;;;;7.18;99.02;101462.28;5018627;28;1025;-81
2022/09/21 00:38:16;;;;;;;;;;;;;;;7.17;98.84;101462.53;5019070;28;764;-82
2022/09/21 00:40:41;;;;;;;;;;;;;;;7.15;99.09;101468.19;5018508;28;992;-82
2022/09/21 00:43:14;;;;;;;;;;;;;;;7.19;99.55;101469.41;5018371;28;1223;-81
2022/09/21 00:45:40;;;;;;;;;;;;;;;7.17;99.97;101466.06;5018622;28;1009;-81
2022/09/21 00:48:05;;;;;;;;;;;;;;;7.17;100.00;101468.78;5018111;28;1048;-82
2022/09/21 00:50:31;;;;;;;;;;;;;;;7.19;100.00;101463.97;5018865;28;1005;-82
2022/09/21 00:52:57;;;;;;;;;;;;;;;7.21;100.00;101471.91;5016526;28;1156;-82
2022/09/21 00:55:36;;;;;;;;;;;;;;;7.22;100.00;101468.94;5016441;28;1971;-82
2022/09/21 00:58:07;;;;;;;;;;;;;;;7.21;100.00;101470.00;5016631;28;1192;-82
2022/09/21 01:00:32;;;;;;;;;;;;;;;7.17;100.00;101474.25;5016688;28;1223;-82
2022/09/21 01:03:00;;;;;;;;;;;;;;;7.15;100.00;101476.38;5016087;28;788;-82
2022/09/21 01:05:26;;;;;;;;;;;;;;;7.16;100.00;101478.03;5017584;28;1217;-82
2022/09/21 01:07:51;;;;;;;;;;;;;;;7.10;100.00;101489.88;5017638;28;1049;-82
2022/09/21 01:10:17;;;;;;;;;;;;;;;7.16;100.00;101479.91;5017880;28;870;-82
2022/09/21 01:13:03;;;;;;;;;;;;;;;7.18;100.00;101486.81;5016599;28;1844;-82
2022/09/21 01:15:53;;;;;;;;;;;;;;;7.22;100.00;101476.28;5016295;28;1903;-82
2022/09/21 01:18:42;;;;;;;;;;;;;;;7.25;100.00;101480.41;5015810;28;1311;-82
2022/09/21 01:21:15;;;;;;;;;;;;;;;7.22;100.00;101482.56;5017676;28;1073;-82
2022/09/21 01:23:44;;;;;;;;;;;;;;;7.27;100.00;101492.72;5017726;28;1280;-82
2022/09/21 01:26:25;;;;;;;;;;;;;;;7.28;100.00;101488.13;5018032;28;958;-81
2022/09/21 01:29:08;;;;;;;;;;;;;;;7.24;100.00;101487.75;5017763;28;1052;-82
2022/09/21 01:31:38;;;;;;;;;;;;;;;7.28;100.00;101493.56;5018263;28;989;-82
2022/09/21 01:34:06;;;;;;;;;;;;;;;7.29;100.00;101500.69;5018054;28;1898;-82
2022/09/21 01:36:32;;;;;;;;;;;;;;;7.25;100.00;101500.31;5018083;28;1029;-82
2022/09/21 01:39:02;;;;;;;;;;;;;;;7.14;100.00;101499.25;5016081;28;1274;-82
2022/09/21 01:41:28;;;;;;;;;;;;;;;7.18;100.00;101494.13;5017963;28;913;-82
2022/09/21 01:43:56;;;;;;;;;;;;;;;7.22;100.00;101496.19;5016435;28;1196;-82
2022/09/21 01:46:25;;;;;;;;;;;;;;;7.21;100.00;101497.22;5018121;28;1076;-82
2022/09/21 01:48:57;;;;;;;;;;;;;;;7.23;100.00;101500.53;5016224;28;1301;-82
2022/09/21 01:51:25;;;;;;;;;;;;;;;7.18;100.00;101500.41;5017111;28;1438;-82
2022/09/21 01:53:51;;;;;;;;;;;;;;;7.21;100.00;101496.41;5016344;28;1890;-82
2022/09/21 01:56:19;;;;;;;;;;;;;;;7.11;100.00;101505.13;5017582;28;1061;-82
2022/09/21 01:59:04;;;;;;;;;;;;;;;7.12;100.00;101500.53;5016536;28;1462;-82
2022/09/21 02:01:33;;;;;;;;;;;;;;;7.09;100.00;101506.44;5017183;28;1224;-82
2022/09/21 02:04:00;;;;;;;;;;;;;;;7.10;100.00;101503.47;5018134;28;1198;-82
2022/09/21 02:06:27;;;;;;;;;;;;;;;7.10;100.00;101516.25;5016070;28;1188;-82
2022/09/21 02:08:52;;;;;;;;;;;;;;;7.08;100.00;101508.31;5015849;28;1211;-82
2022/09/21 02:11:17;;;;;;;;;;;;;;;7.09;100.00;101504.53;5018130;28;1057;-82
2022/09/21 02:13:44;;;;;;;;;;;;;;;7.01;100.00;101506.75;5018366;28;1963;-82
2022/09/21 02:16:24;;;;;;;;;;;;;;;7.02;100.00;101508.41;5017836;28;937;-82
2022/09/21 02:18:56;;;;;;;;;;;;;;;7.09;100.00;101517.31;5018950;28;1013;-82
2022/09/21 02:21:40;;;;;;;;;;;;;;;6.97;100.00;101517.28;5018690;28;854;-82
2022/09/21 02:24:28;;;;;;;;;;;;;;;6.93;100.00;101523.41;5018313;28;1186;-82
2022/09/21 02:27:01;;;;;;;;;;;;;;;6.92;100.00;101513.59;5014892;28;1333;-82
2022/09/21 02:29:32;;;;;;;;;;;;;;;6.93;100.00;101505.19;5025717;28;993;-82
2022/09/21 02:32:04;;;;;;;;;;;;;;;6.83;100.00;101511.19;5016815;28;1205;-82
2022/09/21 02:34:55;;;;;;;;;;;;;;;6.85;100.00;101508.25;5000962;28;1910;-82
2022/09/21 02:37:34;;;;;;;;;;;;;;;6.82;100.00;101514.16;4997402;28;1269;-82
2022/09/21 02:40:08;;;;;;;;;;;;;;;6.69;100.00;101508.91;5000556;28;990;-82
2022/09/21 02:42:36;;;;;;;;;;;;;;;6.79;100.00;101503.75;5000693;28;882;-82
2022/09/21 02:45:08;;;;;;;;;;;;;;;6.81;100.00;101510.59;5015853;28;1346;-82
2022/09/21 02:47:38;;;;;;;;;;;;;;;6.88;100.00;101504.25;5000370;28;1058;-82
2022/09/21 02:50:08;;;;;;;;;;;;;;;6.91;100.00;101509.22;4999986;28;836;-82
2022/09/21 02:52:34;;;;;;;;;;;;;;;6.80;100.00;101511.66;5001533;28;1080;-82
2022/09/21 02:55:00;;;;;;;;;;;;;;;6.64;100.00;101515.00;5015725;28;1981;-82
2022/09/21 02:57:25;;;;;;;;;;;;;;;6.70;100.00;101514.13;5000576;28;1108;-82
2022/09/21 02:59:51;;;;;;;;;;;;;;;6.73;100.00;101515.53;5000741;28;1151;-82
2022/09/21 03:02:16;;;;;;;;;;;;;;;6.61;100.00;101514.66;5000288;28;827;-82
2022/09/21 03:04:43;;;;;;;;;;;;;;;6.53;100.00;101513.09;5000122;28;1212;-82
2022/09/21 03:07:08;;;;;;;;;;;;;;;6.67;100.00;101517.28;5000299;28;1002;-82
2022/09/21 03:09:34;;;;;;;;;;;;;;;6.77;100.00;101514.03;5016118;28;1294;-82
2022/09/21 03:11:59;;;;;;;;;;;;;;;6.76;100.00;101509.63;5000289;28;847;-82
2022/09/21 03:14:24;;;;;;;;;;;;;;;6.76;100.00;101512.34;5015424;28;1959;-82
2022/09/21 03:16:49;;;;;;;;;;;;;;;6.70;100.00;101518.72;5000382;28;693;-82
2022/09/21 03:19:14;;;;;;;;;;;;;;;6.67;100.00;101521.91;5000549;28;862;-82
2022/09/21 03:21:40;;;;;;;;;;;;;;;6.62;100.00;101525.31;5000437;28;1080;-82
2022/09/21 03:24:05;;;;;;;;;;;;;;;6.58;100.00;101523.28;4999861;28;1203;-82
2022/09/21 03:26:30;;;;;;;;;;;;;;;6.49;100.00;101514.59;4998053;28;1396;-82
2022/09/21 03:28:55;;;;;;;;;;;;;;;6.40;100.00;101524.94;4999866;28;803;-82
2022/09/21 03:31:21;;;;;;;;;;;;;;;6.45;100.00;101525.13;5015122;28;1191;-82
2022/09/21 03:33:46;;;;;;;;;;;;;;;6.36;100.00;101514.78;5015025;28;1910;-82
2022/09/21 03:36:11;;;;;;;;;;;;;;;6.33;100.00;101517.94;5000008;28;815;-82
2022/09/21 03:38:36;;;;;;;;;;;;;;;6.35;100.00;101522.09;4998838;28;1197;-82
2022/09/21 03:41:02;;;;;;;;;;;;;;;6.33;100.00;101516.03;5014535;28;1286;-82
2022/09/21 03:43:27;;;;;;;;;;;;;;;6.47;100.00;101522.13;4999921;28;1291;-82
2022/09/21 03:45:52;;;;;;;;;;;;;;;6.34;100.00;101519.59;4997717;28;1263;-82
2022/09/21 03:48:17;;;;;;;;;;;;;;;6.38;100.00;101527.06;4999943;28;744;-82
2022/09/21 03:50:43;;;;;;;;;;;;;;;6.27;100.00;101525.13;4999039;28;997;-82
2022/09/21 03:53:09;;;;;;;;;;;;;;;6.39;100.00;101526.00;4999404;28;1212;-82
2022/09/21 03:55:34;;;;;;;;;;;;;;;6.28;100.00;101529.50;4999190;28;1956;-82
2022/09/21 03:57:59;;;;;;;;;;;;;;;6.38;100.00;101528.97;4997951;28;1477;-82
2022/09/21 04:00:24;;;;;;;;;;;;;;;6.38;100.00;101528.97;4998098;28;898;-82
2022/09/21 04:02:49;;;;;;;;;;;;;;;6.40;100.00;101533.09;4999600;28;997;-82
2022/09/21 04:05:15;;;;;;;;;;;;;;;6.35;100.00;101530.25;4999544;28;1315;-82
2022/09/21 04:07:41;;;;;;;;;;;;;;;6.34;100.00;101534.03;4997768;28;1173;-82
2022/09/21 04:10:09;;;;;;;;;;;;;;;6.32;100.00;101532.59;5014546;28;1180;-82
2022/09/21 04:12:35;;;;;;;;;;;;;;;6.28;100.00;101529.50;4999472;28;866;-82
2022/09/21 04:15:00;;;;;;;;;;;;;;;6.24;100.00;101532.88;4999322;28;1965;-82
2022/09/21 04:17:26;;;;;;;;;;;;;;;6.19;100.00;101533.59;4998786;28;867;-82
2022/09/21 04:19:51;;;;;;;;;;;;;;;6.20;100.00;101532.53;4999165;28;1044;-82
2022/09/21 04:22:17;;;;;;;;;;;;;;;6.13;100.00;101530.91;4997208;28;1170;-82
2022/09/21 04:24:42;;;;;;;;;;;;;;;6.17;100.00;101537.56;4999067;28;1200;-82
2022/09/21 04:27:08;;;;;;;;;;;;;;;6.11;100.00;101531.16;4999440;28;962;-82
2022/09/21 04:29:33;;;;;;;;;;;;;;;6.13;100.00;101533.63;4998991;28;1343;-82
2022/09/21 04:31:58;;;;;;;;;;;;;;;6.06;100.00;101534.53;5015573;28;1261;-82
2022/09/21 04:34:23;;;;;;;;;;;;;;;6.20;100.00;101529.81;5017946;28;1902;-82
2022/09/21 04:36:49;;;;;;;;;;;;;;;6.09;100.00;101525.13;5016759;28;1050;-82
2022/09/21 04:39:14;;;;;;;;;;;;;;;6.13;100.00;101536.34;5017180;28;703;-82
2022/09/21 04:41:39;;;;;;;;;;;;;;;6.17;100.00;101535.69;5018437;28;898;-82
2022/09/21 04:44:04;;;;;;;;;;;;;;;6.14;100.00;101533.41;5016894;28;1299;-82
2022/09/21 04:46:29;;;;;;;;;;;;;;;6.19;100.00;101540.91;5016860;28;981;-82
2022/09/21 04:48:54;;;;;;;;;;;;;;;6.18;100.00;101534.63;5017331;28;1219;-82
2022/09/21 04:51:19;;;;;;;;;;;;;;;6.20;100.00;101535.25;5017614;28;990;-82
2022/09/21 04:53:45;;;;;;;;;;;;;;;6.18;100.00;101533.81;5018130;28;1891;-82
2022/09/21 04:56:12;;;;;;;;;;;;;;;6.12;100.00;101538.25;5018023;28;811;-82
2022/09/21 04:58:37;;;;;;;;;;;;;;;6.17;100.00;101548.44;5018069;28;1022;-82
2022/09/21 05:01:04;;;;;;;;;;;;;;;6.17;100.00;101548.44;5018336;28;1005;-82
2022/09/21 05:03:30;;;;;;;;;;;;;;;6.17;100.00;101549.28;5016189;28;1440;-82
2022/09/21 05:05:55;;;;;;;;;;;;;;;6.21;100.00;101552.38;5018063;28;1046;-82
2022/09/21 05:10:01;;;;;;;;;;;;;;;6.14;100.00;101557.88;5018013;28;1072;-82
2022/09/21 05:11:07;;;;;;;;;;;;;;;6.05;100.00;101548.34;5018022;28;1186;-83
2022/09/21 05:13:32;;;;;;;;;;;;;;;5.98;100.00;101553.03;5016561;28;1882;-83
2022/09/21 05:15:57;;;;;;;;;;;;;;;6.08;100.00;101561.50;5017995;28;1398;-83
2022/09/21 05:18:22;;;;;;;;;;;;;;;6.03;100.00;101559.47;5016620;28;1301;-83
2022/09/21 05:20:55;;;;;;;;;;;;;;;5.90;100.00;101559.59;5015361;28;1432;-83
2022/09/21 05:23:20;;;;;;;;;;;;;;;5.91;100.00;101565.84;5017348;28;1266;-83
2022/09/21 05:25:45;;;;;;;;;;;;;;;5.87;100.00;101568.16;5015701;28;1410;-83
2022/09/21 05:28:10;;;;;;;;;;;;;;;5.93;100.00;101574.63;5017024;28;1297;-83
2022/09/21 05:30:35;;;;;;;;;;;;;;;5.87;100.00;101572.78;5016933;28;899;-82
2022/09/21 05:33:02;;;;;;;;;;;;;;;5.91;100.00;101579.44;5016560;28;1293;-83
2022/09/21 05:35:40;;;;;;;;;;;;;;;5.88;100.00;101580.72;5017115;28;1906;-83
2022/09/21 05:38:16;;;;;;;;;;;;;;;5.83;100.00;101585.97;5017785;28;1096;-83
2022/09/21 05:40:41;;;;;;;;;;;;;;;5.92;100.00;101589.25;5015509;28;1314;-83
2022/09/21 05:43:07;;;;;;;;;;;;;;;5.84;100.00;101590.34;5017313;28;1289;-83
2022/09/21 05:45:32;;;;;;;;;;;;;;;5.91;100.00;101593.03;5016773;28;1326;-83
2022/09/21 05:48:09;;;;;;;;;;;;;;;5.89;100.00;101595.13;5017137;28;1223;-83
2022/09/21 05:50:53;;;;;;;;;;;;;;;5.89;100.00;101589.69;5016782;28;1164;-83
2022/09/21 05:53:25;;;;;;;;;;;;;;;5.80;100.00;101586.41;5017454;28;1315;-83
2022/09/21 05:55:55;;;;;;;;;;;;;;;5.93;100.00;101590.94;5015989;28;1255;-83
2022/09/21 05:58:35;;;;;;;;;;;;;;;5.88;100.00;101591.56;5018127;28;927;-83
2022/09/21 06:01:15;;;;;;;;;;;;;;;5.90;100.00;101589.47;5018012;28;901;-83
2022/09/21 06:03:41;;;;;;;;;;;;;;;5.91;100.00;101590.31;5016459;28;1300;-83
2022/09/21 06:06:07;;;;;;;;;;;;;;;5.96;100.00;101591.28;5015349;28;1216;-83
2022/09/21 06:08:32;;;;;;;;;;;;;;;6.00;100.00;101597.97;5016572;28;1148;-83
2022/09/21 06:10:57;;;;;;;;;;;;;;;6.02;100.00;101595.03;5016161;28;1022;-83
2022/09/21 06:13:22;;;;;;;;;;;;;;;6.03;100.00;101604.84;5017773;28;1986;-83
2022/09/21 06:15:47;;;;;;;;;;;;;;;5.94;100.00;101601.56;5015867;28;1053;-83
2022/09/21 06:18:12;;;;;;;;;;;;;;;5.88;100.00;101605.16;5017807;28;811;-83
2022/09/21 06:20:38;;;;;;;;;;;;;;;5.75;100.00;101605.25;5017321;28;989;-82
2022/09/21 06:23:07;;;;;;;;;;;;;;;5.77;100.00;101608.59;5015363;28;1333;-83
2022/09/21 06:25:32;;;;;;;;;;;;;;;5.85;100.00;101605.59;5015042;28;1299;-83
2022/09/21 06:28:04;;;;;;;;;;;;;;;5.90;100.00;101613.09;5015313;28;1233;-83
2022/09/21 06:30:32;;;;;;;;;;;;;;;5.80;100.00;101601.88;5017130;28;908;-83
2022/09/21 06:32:58;;;;;;;;;;;;;;;5.91;100.00;101603.91;5015723;28;1394;-83
2022/09/21 06:35:23;;;;;;;;;;;;;;;6.05;100.00;101608.97;5015772;28;1883;-83
2022/09/21 06:37:48;;;;;;;;;;;;;;;6.13;100.00;101605.13;5017276;28;1001;-83
2022/09/21 06:40:13;;;;;;;;;;;;;;;6.03;100.00;101605.69;5016442;28;700;-83
2022/09/21 06:42:38;;;;;;;;;;;;;;;6.06;100.00;101607.09;5016724;28;939;-83
2022/09/21 06:45:04;;;;;;;;;;;;;;;5.99;100.00;101614.47;5015101;28;1213;-83
2022/09/21 06:47:29;;;;;;;;;;;;;;;6.03;100.00;101604.84;5016274;28;855;-82
2022/09/21 06:49:54;;;;;;;;;;;;;;;6.07;100.00;101612.31;5015464;28;942;-83
2022/09/21 06:52:19;;;;;;;;;;;;;;;6.19;100.00;101612.41;5017789;28;809;-83
2022/09/21 06:54:44;;;;;;;;;;;;;;;5.99;100.00;101612.59;5015739;28;1886;-83
2022/09/21 06:57:09;;;;;;;;;;;;;;;6.08;100.00;101607.72;5017236;28;1065;-83
2022/09/21 06:59:35;;;;;;;;;;;;;;;6.10;100.00;101602.06;5016014;28;1662;-83
2022/09/21 07:02:00;;;;;;;;;;;;;;;6.14;100.00;101609.53;5015195;28;923;-83
2022/09/21 07:04:25;;;;;;;;;;;;;;;6.26;100.00;101615.91;5016251;28;1318;-83
2022/09/21 07:06:50;;;;;;;;;;;;;;;6.30;100.00;101616.25;5015385;28;1414;-83
2022/09/21 07:09:16;;;;;;;;;;;;;;;6.26;100.00;101620.50;5015871;28;1388;-83
2022/09/21 07:11:41;;;;;;;;;;;;;;;6.19;100.00;101617.84;5016556;28;1128;-83
2022/09/21 07:14:06;;;;;;;;;;;;;;;6.25;100.00;101624.28;5014806;28;1977;-83
2022/09/21 07:16:32;;;;;;;;;;;;;;;6.28;100.00;101623.84;5018059;28;1318;-83
2022/09/21 07:18:57;;;;;;;;;;;;;;;6.33;100.00;101619.38;5020821;28;843;-83
2022/09/21 07:21:22;;;;;;;;;;;;;;;6.33;100.00;101616.66;5018820;28;1528;-83
2022/09/21 07:23:48;;;;;;;;;;;;;;;6.44;100.00;101623.25;5020188;28;1212;-83
2022/09/21 07:26:13;;;;;;;;;;;;;;;6.27;100.00;101624.88;5019556;28;1345;-83
2022/09/21 07:28:38;;;;;;;;;;;;;;;6.40;100.00;101625.56;5020022;28;1314;-83
2022/09/21 07:31:05;;;;;;;;;;;;;;;6.48;100.00;101627.16;5021022;28;973;-83
2022/09/21 07:33:32;;;;;;;;;;;;;;;6.59;100.00;101628.31;5018745;28;1964;-83
2022/09/21 07:35:57;;;;;;;;;;;;;;;6.65;100.00;101630.09;5019913;28;863;-83
2022/09/21 07:38:23;;;;;;;;;;;;;;;6.66;100.00;101635.31;5019104;28;1001;-83
2022/09/21 07:40:48;;;;;;;;;;;;;;;6.66;100.00;101637.22;5020815;28;886;-83
2022/09/21 07:43:13;;;;;;;;;;;;;;;6.65;100.00;101638.25;5021053;28;1322;-83
2022/09/21 07:45:39;;;;;;;;;;;;;;;6.66;100.00;101629.88;5019359;28;1244;-83
2022/09/21 07:48:04;;;;;;;;;;;;;;;6.52;100.00;101622.94;5019345;28;1216;-83
2022/09/21 07:50:30;;;;;;;;;;;;;;;6.61;100.00;101637.06;5019015;28;1200;-83
2022/09/21 07:52:57;;;;;;;;;;;;;;;6.67;100.00;101637.00;5019611;28;1195;-83
2022/09/21 07:55:22;;;;;;;;;;;;;;;6.74;100.00;101631.47;5020773;28;1875;-83
2022/09/21 08:00:33;;;;;;;;;;;;;;;6.77;100.00;101629.13;5020850;28;697;-83
2022/09/21 08:03:00;;;;;;;;;;;;;;;6.79;100.00;101632.47;5018903;28;1289;-83
2022/09/21 08:05:25;;;;;;;;;;;;;;;6.79;100.00;101634.34;5020699;28;1170;-83
2022/09/21 08:07:53;;;;;;;;;;;;;;;6.88;100.00;101634.88;5019703;28;831;-83
2022/09/21 08:10:18;;;;;;;;;;;;;;;6.96;100.00;101632.69;5018908;28;1192;-83
2022/09/21 08:12:44;;;;;;;;;;;;;;;7.04;100.00;101635.09;5018362;28;906;-83
2022/09/21 08:15:10;;;;;;;;;;;;;;;7.07;100.00;101626.44;5020053;28;1977;-83
2022/09/21 08:17:37;;;;;;;;;;;;;;;7.07;100.00;101620.16;5018080;28;1323;-83
2022/09/21 08:20:02;;;;;;;;;;;;;;;7.11;100.00;101635.81;5019257;28;1197;-83
2022/09/21 08:22:27;;;;;;;;;;;;;;;7.16;100.00;101638.66;5020216;28;1065;-82
2022/09/21 08:24:53;;;;;;;;;;;;;;;7.23;100.00;101635.84;5019853;28;1200;-83
2022/09/21 08:27:19;;;;;;;;;;;;;;;7.29;100.00;101640.41;5018118;28;1196;-83
2022/09/21 08:29:44;;;;;;;;;;;;;;;7.26;100.00;101640.00;5020848;28;847;-83
2022/09/21 08:32:10;;;;;;;;;;;;;;;7.32;100.00;101639.09;5019002;28;1196;-83
2022/09/21 08:34:35;;;;;;;;;;;;;;;7.33;100.00;101641.56;5018636;28;1969;-83
2022/09/21 08:37:00;;;;;;;;;;;;;;;7.33;100.00;101638.84;5019738;28;1077;-83
2022/09/21 08:39:25;;;;;;;;;;;;;;;7.31;100.00;101641.00;5020132;28;1009;-83
2022/09/21 08:42:08;;;;;;;;;;;;;;;7.36;100.00;101634.84;5019967;28;815;-83
2022/09/21 08:44:41;;;;;;;;;;;;;;;7.37;100.00;101631.91;5020207;28;1263;-83
2022/09/21 08:47:07;;;;;;;;;;;;;;;7.38;100.00;101635.44;5020438;28;1073;-83
2022/09/21 08:49:33;;;;;;;;;;;;;;;7.40;100.00;101641.50;5020284;28;1034;-83
2022/09/21 08:52:00;;;;;;;;;;;;;;;7.48;100.00;101643.91;5018407;28;1350;-82
2022/09/21 08:54:26;;;;;;;;;;;;;;;7.54;100.00;101643.78;5018890;28;1910;-83
2022/09/21 08:56:51;;;;;;;;;;;;;;;7.58;100.00;101639.53;5019423;28;846;-83
2022/09/21 08:59:17;;;;;;;;;;;;;;;7.67;100.00;101640.03;5019298;28;847;-83
2022/09/21 09:01:51;;;;;;;;;;;;;;;7.77;100.00;101642.19;5018743;28;1176;-83
2022/09/21 09:04:16;;;;;;;;;;;;;;;7.86;100.00;101641.59;5020195;28;1216;-83
2022/09/21 09:07:04;;;;;;;;;;;;;;;7.89;100.00;101646.59;5017469;28;942;-83
2022/09/21 09:10:01;;;;;;;;;;;;;;;8.00;100.00;101636.75;5019188;28;1026;-83
2022/09/21 09:12:45;;;;;;;;;;;;;;;8.05;100.00;101645.06;5008032;28;1129;-83
2022/09/21 09:15:29;;;;;;;;;;;;;;;8.11;100.00;101644.13;5016923;28;1955;-83
2022/09/21 09:17:57;;;;;;;;;;;;;;;8.04;100.00;101643.41;5019050;28;1025;-83
2022/09/21 09:20:29;;;;;;;;;;;;;;;8.06;100.00;101640.47;5018899;28;977;-83
2022/09/21 09:22:57;;;;;;;;;;;;;;;8.11;100.00;101643.28;5018468;28;1201;-83
2022/09/21 09:25:23;;;;;;;;;;;;;;;8.18;100.00;101641.28;5017279;28;1390;-83
2022/09/21 09:27:57;;;;;;;;;;;;;;;8.22;100.00;101637.84;5018534;28;818;-83
2022/09/21 09:30:24;;;;;;;;;;;;;;;8.27;100.00;101635.22;5016969;28;1256;-83
2022/09/21 09:33:18;;;;;;;;;;;;;;;8.35;100.00;101636.81;5018241;28;784;-83
2022/09/21 09:35:46;;;;;;;;;;;;;;;8.47;100.00;101637.63;5013605;28;1946;-83
2022/09/21 09:38:22;;;;;;;;;;;;;;;8.54;100.00;101632.03;5016305;28;1228;-83
2022/09/21 09:40:54;;;;;;;;;;;;;;;8.56;100.00;101629.91;5019035;28;1072;-83
2022/09/21 09:43:29;;;;;;;;;;;;;;;8.60;100.00;101634.63;5018539;28;1283;-83
2022/09/21 09:46:18;;;;;;;;;;;;;;;8.65;100.00;101637.50;5019320;28;1029;-83
2022/09/21 09:48:48;;;;;;;;;;;;;;;8.73;100.00;101639.84;5018076;28;1210;-83
2022/09/21 09:51:13;;;;;;;;;;;;;;;8.74;100.00;101640.69;5017794;28;1392;-83
2022/09/21 09:53:39;;;;;;;;;;;;;;;8.73;100.00;101642.59;5019064;28;1906;-83
2022/09/21 09:56:04;;;;;;;;;;;;;;;8.73;100.00;101639.84;5018768;28;827;-83
2022/09/21 09:58:39;;;;;;;;;;;;;;;8.79;100.00;101635.31;5019521;28;1041;-83
2022/09/21 10:01:04;;;;;;;;;;;;;;;8.80;100.00;101634.25;5018764;28;965;-83
2022/09/21 10:03:29;;;;;;;;;;;;;;;8.89;100.00;101634.72;5017037;28;1312;-83
2022/09/21 10:05:54;;;;;;;;;;;;;;;9.00;100.00;101636.59;5017033;28;1001;-83
2022/09/21 10:08:38;;;;;;;;;;;;;;;9.02;100.00;101634.41;5018721;28;998;-83
2022/09/21 10:11:03;;;;;;;;;;;;;;;9.08;100.00;101631.56;5019595;28;1025;-83
2022/09/21 10:13:33;;;;;;;;;;;;;;;9.16;100.00;101629.53;5017141;28;1213;-83
2022/09/21 10:16:10;;;;;;;;;;;;;;;9.23;100.00;101628.28;5018267;28;1080;-83
2022/09/21 10:18:49;;;;;;;;;;;;;;;9.35;100.00;101628.25;5018627;28;1021;-83
2022/09/21 10:21:16;;;;;;;;;;;;;;;9.30;100.00;101622.69;5018261;28;874;-83
2022/09/21 10:23:45;;;;;;;;;;;;;;;9.16;100.00;101624.88;5016444;28;1208;-83
2022/09/21 10:26:12;;;;;;;;;;;;;;;9.05;100.00;101617.56;5016720;28;1203;-83
2022/09/21 10:28:53;;;;;;;;;;;;;;;8.98;100.00;101628.63;5018160;28;1156;-83
2022/09/21 10:31:22;;;;;;;;;;;;;;;8.87;100.00;101632.22;5018333;28;839;-82
2022/09/21 10:34:04;;;;;;;;;;;;;;;8.80;100.00;101615.13;5018444;28;1894;-83
2022/09/21 10:36:33;;;;;;;;;;;;;;;8.73;100.00;101615.28;5018114;28;874;-83
2022/09/21 10:39:09;;;;;;;;;;;;;;;8.79;100.00;101612.66;5016186;28;1520;-82
2022/09/21 10:41:36;;;;;;;;;;;;;;;8.81;100.00;101615.97;5018098;28;1005;-83
2022/09/21 10:44:01;;;;;;;;;;;;;;;8.84;100.00;101615.50;5018393;28;1216;-83
2022/09/21 10:46:34;;;;;;;;;;;;;;;8.86;100.00;101614.16;5018124;28;1021;-83
2022/09/21 10:48:59;;;;;;;;;;;;;;;8.91;100.00;101613.47;5017695;28;819;-83
2022/09/21 10:51:27;;;;;;;;;;;;;;;8.95;100.00;101600.97;5020258;28;965;-83
2022/09/21 10:53:53;;;;;;;;;;;;;;;8.99;100.00;101599.41;5021378;28;1903;-83
2022/09/21 10:56:18;;;;;;;;;;;;;;;9.04;100.00;101594.03;5019860;28;1544;-82
2022/09/21 10:59:02;;;;;;;;;;;;;;;9.11;100.00;101590.09;5020031;28;1208;-82
2022/09/21 11:01:28;;;;;;;;;;;;;;;9.16;100.00;101597.56;5020555;28;1212;-83
2022/09/21 11:04:01;;;;;;;;;;;;;;;9.18;100.00;101597.34;5021187;28;1260;-82
2022/09/21 11:06:34;;;;;;;;;;;;;;;9.22;100.00;101591.13;5023050;28;887;-83
2022/09/21 11:09:11;;;;;;;;;;;;;;;9.30;100.00;101587.16;5024274;28;839;-83
2022/09/21 11:11:36;;;;;;;;;;;;;;;9.33;100.00;101582.03;5022310;28;1020;-82
2022/09/21 11:14:20;;;;;;;;;;;;;;;9.37;100.00;101582.38;5020730;28;1890;-82
2022/09/21 11:16:49;;;;;;;;;;;;;;;9.44;100.00;101580.34;5020930;28;1239;-82
2022/09/21 11:19:15;;;;;;;;;;;;;;;9.55;100.00;101586.78;5020788;28;1183;-82
2022/09/21 11:22:04;;;;;;;;;;;;;;;9.62;100.00;101581.97;5022183;28;815;-83
2022/09/21 11:24:44;;;;;;;;;;;;;;;9.65;100.00;101585.06;5020294;28;1193;-82
2022/09/21 11:27:18;;;;;;;;;;;;;;;9.76;100.00;101575.94;5022121;28;986;-82
2022/09/21 11:30:02;;;;;;;;;;;;;;;9.78;100.00;101581.19;5021864;28;1005;-83
2022/09/21 11:32:46;;;;;;;;;;;;;;;9.87;100.00;101577.75;5021628;28;843;-83
2022/09/21 11:35:14;;;;;;;;;;;;;;;9.96;100.00;101575.41;5022856;28;1887;-83
2022/09/21 11:37:48;;;;;;;;;;;;;;;10.11;100.00;101569.38;5021875;28;1107;-83
2022/09/21 11:40:24;;;;;;;;;;;;;;;10.14;100.00;101566.94;5023032;28;808;-83
2022/09/21 11:43:05;;;;;;;;;;;;;;;10.12;100.00;101571.03;5022061;28;1210;-83
2022/09/21 11:45:49;;;;;;;;;;;;;;;10.18;100.00;101565.41;5020487;28;1235;-83
2022/09/21 11:48:28;;;;;;;;;;;;;;;10.22;100.00;101573.94;5022186;28;1005;-83
2022/09/21 11:51:03;;;;;;;;;;;;;;;10.32;100.00;101563.13;5021955;28;1095;-82
2022/09/21 11:53:36;;;;;;;;;;;;;;;10.42;100.00;101556.97;5021500;28;1329;-84
2022/09/21 11:56:15;;;;;;;;;;;;;;;10.49;100.00;101557.59;5020126;28;1253;-83
2022/09/21 11:58:59;;;;;;;;;;;;;;;10.59;100.00;101553.09;5022255;28;1634;-84
2022/09/21 12:01:38;;;;;;;;;;;;;;;10.58;100.00;101545.13;5021805;28;1118;-84
2022/09/21 12:04:17;;;;;;;;;;;;;;;10.66;99.90;101547.41;5018988;28;1477;-82
2022/09/21 12:06:54;;;;;;;;;;;;;;;10.72;99.12;101532.69;5018985;28;1179;-84
2022/09/21 12:09:22;;;;;;;;;;;;;;;10.79;97.93;101535.25;5020724;28;1187;-83
2022/09/21 12:11:58;;;;;;;;;;;;;;;10.88;97.53;101536.47;5019944;28;1243;-84
2022/09/21 12:14:41;;;;;;;;;;;;;;;10.95;93.74;101532.44;5021351;28;1897;-83
2022/09/21 12:17:26;;;;;;;;;;;;;;;11.03;92.34;101538.53;5020944;28;1196;-83
2022/09/21 12:20:03;;;;;;;;;;;;;;;11.05;92.32;101528.13;5022379;28;839;-84
2022/09/21 12:22:32;;;;;;;;;;;;;;;11.10;93.28;101525.44;5020724;28;1450;-83
2022/09/21 12:25:20;;;;;;;;;;;;;;;11.14;93.68;101518.38;5021615;28;1248;-83
2022/09/21 12:27:49;;;;;;;;;;;;;;;11.18;93.81;101519.50;5023368;28;1113;-84
2022/09/21 12:30:18;;;;;;;;;;;;;;;11.26;92.95;101522.59;5021010;28;1195;-83
2022/09/21 12:32:51;;;;;;;;;;;;;;;11.33;92.16;101520.44;5022266;28;958;-84
2022/09/21 12:35:19;;;;;;;;;;;;;;;11.41;91.18;101524.63;5021353;28;1942;-83
2022/09/21 12:38:05;;;;;;;;;;;;;;;11.41;89.95;101521.88;5021950;28;1089;-82
2022/09/21 12:40:35;;;;;;;;;;;;;;;11.48;89.46;101524.44;5023721;28;1368;-83
2022/09/21 12:43:21;;;;;;;;;;;;;;;11.50;87.49;101522.22;5020444;28;1319;-83
2022/09/21 12:45:55;;;;;;;;;;;;;;;11.61;86.88;101524.81;5022131;28;832;-84
2022/09/21 12:48:27;;;;;;;;;;;;;;;11.91;81.65;101507.75;5020730;28;1143;-83
2022/09/21 12:50:54;;;;;;;;;;;;;;;11.90;81.79;101505.31;5021737;28;1005;-83
2022/09/21 12:53:22;;;;;;;;;;;;;;;12.06;82.32;101507.03;5022294;28;1209;-83
2022/09/21 12:55:52;;;;;;;;;;;;;;;15.07;73.06;101497.28;5020341;28;1929;-83
2022/09/21 12:58:36;;;;;;;;;;;;;;;21.36;59.35;101487.72;5020967;28;1029;-83
2022/09/21 13:01:07;;;;;;;;;;;;;;;24.42;51.78;101482.59;5020333;28;978;-83
2022/09/21 13:03:36;;;;;;;;;;;;;;;24.94;45.59;101475.44;5020207;28;1192;-83
2022/09/21 13:06:08;;;;;;;;;;;;;;;24.43;47.05;101475.03;5020413;28;953;-83